createdAt,value
2019-05-19T00:02:18.281Z,1.80
2019-05-19T00:04:45.368Z,1.97
2019-05-19T00:07:12.135Z,1.60
2019-05-19T00:09:38.876Z,1.53
2019-05-19T00:12:05.790Z,1.60
2019-05-19T00:14:32.537Z,1.50
2019-05-19T00:16:59.274Z,1.43
2019-05-19T00:19:27.165Z,1.70
2019-05-19T00:21:54.170Z,1.50
2019-05-19T00:24:20.941Z,1.47
2019-05-19T00:26:47.723Z,1.80
2019-05-19T00:29:14.469Z,1.60
2019-05-19T00:31:41.216Z,1.50
2019-05-19T00:34:08.009Z,1.67
2019-05-19T00:36:34.763Z,1.53
2019-05-19T00:39:01.516Z,1.47
2019-05-19T00:41:28.286Z,1.70
2019-05-19T00:43:55.031Z,3.03
2019-05-19T00:46:22.884Z,3.47
2019-05-19T00:48:49.783Z,2.30
2019-05-19T00:51:16.733Z,2.17
2019-05-19T00:53:43.461Z,2.03
2019-05-19T00:56:10.775Z,1.30
2019-05-19T00:58:38.413Z,1.57
2019-05-19T01:01:05.156Z,1.43
2019-05-19T01:03:31.924Z,1.50
2019-05-19T01:05:58.686Z,1.67
2019-05-19T01:08:25.407Z,1.80
2019-05-19T01:10:52.183Z,1.43
2019-05-19T01:13:18.966Z,1.60
2019-05-19T01:15:45.726Z,1.33
2019-05-19T01:18:12.545Z,1.50
2019-05-19T01:20:39.304Z,1.57
2019-05-19T01:23:06.114Z,1.50
2019-05-19T01:25:32.987Z,1.50
2019-05-19T01:27:59.712Z,1.60
2019-05-19T01:30:26.660Z,1.60
2019-05-19T01:32:53.456Z,1.70
2019-05-19T01:35:20.199Z,1.47
2019-05-19T01:37:46.959Z,1.10
2019-05-19T01:40:14.838Z,1.37
2019-05-19T01:42:41.580Z,1.30
2019-05-19T01:45:08.934Z,1.43
2019-05-19T01:47:35.760Z,1.50
2019-05-19T01:50:17.758Z,1.37
2019-05-19T01:52:36.816Z,1.40
2019-05-19T01:55:05.411Z,1.30
2019-05-19T01:57:32.126Z,1.50
2019-05-19T01:59:58.901Z,1.50
2019-05-19T02:02:25.741Z,1.40
2019-05-19T02:04:52.491Z,1.47
2019-05-19T02:07:19.246Z,1.30
2019-05-19T02:09:46.030Z,1.30
2019-05-19T02:12:12.774Z,1.57
2019-05-19T02:14:39.540Z,1.30
2019-05-19T02:17:06.323Z,1.43
2019-05-19T02:19:33.555Z,1.33
2019-05-19T02:22:00.292Z,1.50
2019-05-19T02:24:27.194Z,1.60
2019-05-19T02:26:53.964Z,1.37
2019-05-19T02:29:20.671Z,1.17
2019-05-19T02:31:47.524Z,1.20
2019-05-19T02:34:14.226Z,1.23
2019-05-19T02:36:40.968Z,1.20
2019-05-19T02:39:07.761Z,1.30
2019-05-19T02:41:37.805Z,1.30
2019-05-19T02:44:05.344Z,1.30
2019-05-19T02:46:34.261Z,1.40
2019-05-19T02:49:02.886Z,1.40
2019-05-19T02:51:32.147Z,1.40
2019-05-19T02:54:01.817Z,1.30
2019-05-19T02:56:30.880Z,1.17
2019-05-19T02:58:58.719Z,1.30
2019-05-19T03:01:25.496Z,1.40
2019-05-19T03:03:52.244Z,1.50
2019-05-19T03:06:18.981Z,1.30
2019-05-19T03:08:45.769Z,1.50
2019-05-19T03:11:12.552Z,1.30
2019-05-19T03:13:39.259Z,1.80
2019-05-19T03:16:06.066Z,1.77
2019-05-19T03:18:32.812Z,1.20
2019-05-19T03:21:10.362Z,1.00
2019-05-19T03:23:28.170Z,1.23
2019-05-19T03:25:54.962Z,1.30
2019-05-19T03:28:21.696Z,2.30
2019-05-19T03:30:48.498Z,4.40
2019-05-19T03:33:15.270Z,5.07
2019-05-19T03:35:42.026Z,3.80
2019-05-19T03:38:08.920Z,2.30
2019-05-19T03:40:35.685Z,1.97
2019-05-19T03:43:02.447Z,2.57
2019-05-19T03:45:29.261Z,4.80
2019-05-19T03:47:56.012Z,3.53
2019-05-19T03:50:22.771Z,2.10
2019-05-19T03:52:49.562Z,2.10
2019-05-19T03:55:16.309Z,2.70
2019-05-19T03:57:43.048Z,2.50
2019-05-19T04:00:10.438Z,2.17
2019-05-19T04:02:37.181Z,1.60
2019-05-19T04:05:09.083Z,2.43
2019-05-19T04:07:35.856Z,2.33
2019-05-19T04:10:05.306Z,2.50
2019-05-19T04:12:32.051Z,3.37
2019-05-19T04:14:58.830Z,2.80
2019-05-19T04:17:25.602Z,2.10
2019-05-19T04:19:52.317Z,1.47
2019-05-19T04:22:19.206Z,2.07
2019-05-19T04:24:45.940Z,2.40
2019-05-19T04:27:12.718Z,2.90
2019-05-19T04:29:39.745Z,2.00
2019-05-19T04:32:06.482Z,1.50
2019-05-19T04:34:33.250Z,1.70
2019-05-19T04:37:00.017Z,1.90
2019-05-19T04:39:26.731Z,2.53
2019-05-19T04:41:53.466Z,1.93
2019-05-19T04:44:20.368Z,3.30
2019-05-19T04:46:47.108Z,3.70
2019-05-19T04:49:13.856Z,3.40
2019-05-19T04:51:40.633Z,3.70
2019-05-19T04:54:07.366Z,1.93
2019-05-19T04:56:34.105Z,1.70
2019-05-19T04:59:00.913Z,1.77
2019-05-19T05:01:27.645Z,2.23
2019-05-19T05:03:54.352Z,2.20
2019-05-19T05:06:21.150Z,2.17
2019-05-19T05:08:47.860Z,1.30
2019-05-19T05:11:14.610Z,1.40
2019-05-19T05:13:43.264Z,1.60
2019-05-19T05:16:10.040Z,2.00
2019-05-19T05:18:36.764Z,2.57
2019-05-19T05:21:03.658Z,3.20
2019-05-19T05:23:30.420Z,2.37
2019-05-19T05:25:57.185Z,2.33
2019-05-19T05:28:24.316Z,2.57
2019-05-19T05:30:51.028Z,3.17
2019-05-19T05:33:17.836Z,2.10
2019-05-19T05:35:44.628Z,2.50
2019-05-19T05:38:11.352Z,1.70
2019-05-19T05:40:39.525Z,2.07
2019-05-19T05:43:08.446Z,1.90
2019-05-19T05:45:35.484Z,1.90
2019-05-19T05:48:02.358Z,2.20
2019-05-19T05:50:29.246Z,2.10
2019-05-19T05:52:55.976Z,1.90
2019-05-19T05:55:22.741Z,1.90
2019-05-19T05:57:49.528Z,1.70
2019-05-19T06:00:16.864Z,1.70
2019-05-19T06:02:43.579Z,2.00
2019-05-19T06:05:10.485Z,1.83
2019-05-19T06:07:37.217Z,1.70
2019-05-19T06:10:06.373Z,2.30
2019-05-19T06:12:33.251Z,2.43
2019-05-19T06:15:00.060Z,2.10
2019-05-19T06:17:26.766Z,1.93
2019-05-19T06:19:53.668Z,1.90
2019-05-19T06:22:20.400Z,1.80
2019-05-19T06:24:47.177Z,1.97
2019-05-19T06:27:13.982Z,1.70
2019-05-19T06:29:40.764Z,1.93
2019-05-19T06:32:07.532Z,1.80
2019-05-19T06:34:34.427Z,1.70
2019-05-19T06:37:01.151Z,1.73
2019-05-19T06:39:27.868Z,2.20
2019-05-19T06:41:54.666Z,1.90
2019-05-19T06:46:56.715Z,2.77
2019-05-19T06:49:23.545Z,3.27
2019-05-19T06:51:50.316Z,3.93
2019-05-19T06:54:17.069Z,8.97
2019-05-19T06:56:43.901Z,15.20
2019-05-19T06:59:10.658Z,15.13
2019-05-19T07:01:37.400Z,13.10
2019-05-19T07:04:04.223Z,11.33
2019-05-19T07:06:34.015Z,20.13
2019-05-19T07:08:59.559Z,12.13
2019-05-19T07:11:26.370Z,13.60
2019-05-19T07:13:53.100Z,16.50
2019-05-19T07:16:19.851Z,14.10
2019-05-19T07:18:46.650Z,15.40
2019-05-19T07:21:13.388Z,19.13
2019-05-19T07:23:40.121Z,20.60
2019-05-19T07:26:06.919Z,32.47
2019-05-19T07:28:33.667Z,19.40
2019-05-19T07:31:00.454Z,15.70
2019-05-19T07:33:27.284Z,54.20
2019-05-19T07:35:54.174Z,12.10
2019-05-19T07:38:20.929Z,4.73
2019-05-19T07:40:47.852Z,3.10
2019-05-19T07:43:14.667Z,2.03
2019-05-19T07:45:41.474Z,1.60
2019-05-19T07:48:08.282Z,2.13
2019-05-19T07:50:37.966Z,1.80
2019-05-19T07:53:03.568Z,3.30
2019-05-19T07:55:30.476Z,1.70
2019-05-19T07:57:57.231Z,8.83
2019-05-19T08:00:23.983Z,9.30
2019-05-19T08:02:50.856Z,4.57
2019-05-19T08:05:17.588Z,3.53
2019-05-19T08:07:44.354Z,1.80
2019-05-19T08:10:11.751Z,1.57
2019-05-19T08:12:38.507Z,1.60
2019-05-19T08:15:06.654Z,2.90
2019-05-19T08:17:33.572Z,1.60
2019-05-19T08:20:00.300Z,2.10
2019-05-19T08:22:27.065Z,2.40
2019-05-19T08:24:53.961Z,2.73
2019-05-19T08:27:20.717Z,3.40
2019-05-19T08:29:47.554Z,2.33
2019-05-19T08:32:14.343Z,2.10
2019-05-19T08:34:41.105Z,6.23
2019-05-19T08:37:07.837Z,7.53
2019-05-19T08:39:34.657Z,6.30
2019-05-19T08:42:01.395Z,5.90
2019-05-19T08:44:28.156Z,3.00
2019-05-19T08:46:55.224Z,16.07
2019-05-19T08:49:22.205Z,7.33
2019-05-19T08:51:49.008Z,4.53
2019-05-19T08:54:18.843Z,3.10
2019-05-19T08:56:44.437Z,2.80
2019-05-19T08:59:11.187Z,1.90
2019-05-19T09:01:37.978Z,1.53
2019-05-19T09:04:04.724Z,2.10
2019-05-19T09:06:31.488Z,3.30
2019-05-19T09:08:58.280Z,2.07
2019-05-19T09:11:25.028Z,1.90
2019-05-19T09:13:51.813Z,1.60
2019-05-19T09:16:27.889Z,4.20
2019-05-19T09:18:54.583Z,3.63
2019-05-19T09:21:21.395Z,2.17
2019-05-19T09:23:48.177Z,3.07
2019-05-19T09:26:14.924Z,2.27
2019-05-19T09:28:41.693Z,2.10
2019-05-19T09:31:08.633Z,2.17
2019-05-19T09:33:35.394Z,2.13
2019-05-19T09:36:02.131Z,1.80
2019-05-19T09:38:28.944Z,1.90
2019-05-19T09:40:55.725Z,1.40
2019-05-19T09:43:22.477Z,1.50
2019-05-19T09:45:49.331Z,1.47
2019-05-19T09:48:16.113Z,1.27
2019-05-19T09:50:42.888Z,1.63
2019-05-19T09:53:09.691Z,1.27
2019-05-19T09:55:36.442Z,1.20
2019-05-19T09:58:03.284Z,1.10
2019-05-19T10:00:30.194Z,0.90
2019-05-19T10:02:56.943Z,1.17
2019-05-19T10:05:23.705Z,2.43
2019-05-19T10:07:50.532Z,2.00
2019-05-19T10:10:21.140Z,2.30
2019-05-19T10:12:47.869Z,1.40
2019-05-19T10:15:14.893Z,9.43
2019-05-19T10:17:44.150Z,1.70
2019-05-19T10:20:12.827Z,2.20
2019-05-19T10:22:39.633Z,1.93
2019-05-19T10:25:20.940Z,1.70
2019-05-19T10:27:37.329Z,1.50
2019-05-19T10:30:07.645Z,1.20
2019-05-19T10:32:34.456Z,1.10
2019-05-19T10:35:03.075Z,1.40
2019-05-19T10:37:31.361Z,1.50
2019-05-19T10:39:58.131Z,2.57
2019-05-19T10:42:25.258Z,2.20
2019-05-19T10:44:52.707Z,2.53
2019-05-19T10:47:19.602Z,2.30
2019-05-19T10:49:46.842Z,1.83
2019-05-19T10:52:13.786Z,1.67
2019-05-19T10:54:40.516Z,1.90
2019-05-19T10:57:07.272Z,1.60
2019-05-19T10:59:34.084Z,1.80
2019-05-19T11:02:00.816Z,1.97
2019-05-19T11:04:27.558Z,2.80
2019-05-19T11:06:54.352Z,3.23
2019-05-19T11:09:21.143Z,2.53
2019-05-19T11:11:47.820Z,3.20
2019-05-19T11:14:14.732Z,2.40
2019-05-19T11:16:41.493Z,2.97
2019-05-19T11:19:08.210Z,2.60
2019-05-19T11:21:35.016Z,2.27
2019-05-19T11:24:01.795Z,2.00
2019-05-19T11:26:28.534Z,2.23
2019-05-19T11:28:56.014Z,2.33
2019-05-19T11:31:22.845Z,2.90
2019-05-19T11:33:49.614Z,2.30
2019-05-19T11:36:17.000Z,2.13
2019-05-19T11:38:43.771Z,2.13
2019-05-19T11:41:10.517Z,2.43
2019-05-19T11:43:37.339Z,2.17
2019-05-19T11:46:04.115Z,2.30
2019-05-19T11:48:30.835Z,2.20
2019-05-19T11:50:57.892Z,2.13
2019-05-19T11:53:24.687Z,2.33
2019-05-19T11:56:05.460Z,2.30
2019-05-19T11:58:20.245Z,2.57
2019-05-19T12:00:47.005Z,2.53
2019-05-19T12:03:13.774Z,2.30
2019-05-19T12:05:40.574Z,2.83
2019-05-19T12:08:07.310Z,2.60
2019-05-19T12:10:34.056Z,2.40
2019-05-19T12:13:00.853Z,2.20
2019-05-19T12:15:27.592Z,2.03
2019-05-19T12:17:54.336Z,1.97
2019-05-19T12:20:21.186Z,2.33
2019-05-19T12:22:47.892Z,2.50
2019-05-19T12:25:14.825Z,2.30
2019-05-19T12:27:41.727Z,2.40
2019-05-19T12:30:12.372Z,2.60
2019-05-19T12:32:39.166Z,2.30
2019-05-19T12:35:06.053Z,2.30
2019-05-19T12:37:32.828Z,2.27
2019-05-19T12:39:59.538Z,2.20
2019-05-19T12:42:26.380Z,2.93
2019-05-19T12:44:53.155Z,2.80
2019-05-19T12:47:19.922Z,2.50
2019-05-19T12:49:46.732Z,2.60
2019-05-19T12:52:13.452Z,2.60
2019-05-19T12:54:40.237Z,2.50
2019-05-19T12:57:07.006Z,2.00
2019-05-19T12:59:33.734Z,2.40
2019-05-19T13:02:00.469Z,3.03
2019-05-19T13:04:27.284Z,3.17
2019-05-19T13:06:54.046Z,3.60
2019-05-19T13:09:20.802Z,2.77
2019-05-19T13:11:47.612Z,3.10
2019-05-19T13:14:14.359Z,3.33
2019-05-19T13:16:41.106Z,3.57
2019-05-19T13:19:07.978Z,3.17
2019-05-19T13:21:34.741Z,2.50
2019-05-19T13:24:01.510Z,2.50
2019-05-19T13:26:28.323Z,2.63
2019-05-19T13:28:55.067Z,2.03
2019-05-19T13:31:21.818Z,2.60
2019-05-19T13:33:48.800Z,2.30
2019-05-19T13:36:15.905Z,2.60
2019-05-19T13:38:42.608Z,2.20
2019-05-19T13:41:09.515Z,2.20
2019-05-19T13:43:36.241Z,2.00
2019-05-19T13:46:02.996Z,1.80
2019-05-19T13:48:29.894Z,1.90
2019-05-19T13:50:56.664Z,2.10
2019-05-19T13:53:23.388Z,2.00
2019-05-19T13:55:50.276Z,1.87
2019-05-19T13:58:17.021Z,1.90
2019-05-19T14:00:43.747Z,1.50
2019-05-19T14:03:10.636Z,1.90
2019-05-19T14:05:37.379Z,1.80
2019-05-19T14:08:04.182Z,2.00
2019-05-19T14:10:30.957Z,1.87
2019-05-19T14:12:57.699Z,2.00
2019-05-19T14:15:24.470Z,2.00
2019-05-19T14:17:51.294Z,1.90
2019-05-19T14:20:18.038Z,2.07
2019-05-19T14:22:44.779Z,2.10
2019-05-19T14:25:11.813Z,2.10
2019-05-19T14:27:38.554Z,2.07
2019-05-19T14:30:07.279Z,1.80
2019-05-19T14:32:34.176Z,2.00
2019-05-19T14:35:00.953Z,2.00
2019-05-19T14:37:27.697Z,2.00
2019-05-19T14:39:54.528Z,2.30
2019-05-19T14:42:21.266Z,2.00
2019-05-19T14:44:48.041Z,2.27
2019-05-19T14:47:15.840Z,2.43
2019-05-19T14:49:45.521Z,1.90
2019-05-19T14:52:11.601Z,2.20
2019-05-19T14:54:38.453Z,1.87
2019-05-19T14:57:05.198Z,1.97
2019-05-19T14:59:31.960Z,2.30
2019-05-19T15:01:58.760Z,2.40
2019-05-19T15:04:25.490Z,2.00
2019-05-19T15:06:52.286Z,1.80
2019-05-19T15:09:19.065Z,1.93
2019-05-19T15:11:46.122Z,1.57
2019-05-19T15:14:12.867Z,1.60
2019-05-19T15:16:39.804Z,1.70
2019-05-19T15:19:06.562Z,2.40
2019-05-19T15:21:33.543Z,7.33
2019-05-19T15:24:00.369Z,17.63
2019-05-19T15:26:29.226Z,10.87
2019-05-19T15:28:55.962Z,8.23
2019-05-19T15:31:22.805Z,1.70
2019-05-19T15:33:49.555Z,1.67
2019-05-19T15:36:16.393Z,1.40
2019-05-19T15:38:43.312Z,1.90
2019-05-19T15:41:10.321Z,1.77
2019-05-19T15:43:37.236Z,1.97
2019-05-19T15:46:04.052Z,1.47
2019-05-19T15:48:30.833Z,1.63
2019-05-19T15:50:57.941Z,1.60
2019-05-19T15:53:26.806Z,1.57
2019-05-19T15:55:57.088Z,1.30
2019-05-19T15:58:23.828Z,1.30
2019-05-19T16:00:50.638Z,1.30
2019-05-19T16:03:18.990Z,1.10
2019-05-19T16:05:45.750Z,1.00
2019-05-19T16:08:12.848Z,1.07
2019-05-19T16:10:39.622Z,1.60
2019-05-19T16:13:06.401Z,1.03
2019-05-19T16:15:33.303Z,1.80
2019-05-19T16:18:01.884Z,1.20
2019-05-19T16:20:28.624Z,1.00
2019-05-19T16:22:55.432Z,1.10
2019-05-19T16:25:22.279Z,1.00
2019-05-19T16:27:49.023Z,1.10
2019-05-19T16:30:16.052Z,1.30
2019-05-19T16:32:42.849Z,1.10
2019-05-19T16:35:09.809Z,1.13
2019-05-19T16:37:36.722Z,1.37
2019-05-19T16:40:05.749Z,1.00
2019-05-19T16:42:32.589Z,1.40
2019-05-19T16:44:59.412Z,1.23
2019-05-19T16:47:26.140Z,1.47
2019-05-19T16:49:53.285Z,1.50
2019-05-19T16:52:20.203Z,1.40
2019-05-19T16:54:46.979Z,1.20
2019-05-19T16:57:13.704Z,1.20
2019-05-19T16:59:40.519Z,1.30
2019-05-19T17:02:08.665Z,1.60
2019-05-19T17:04:35.403Z,1.67
2019-05-19T17:07:03.080Z,1.23
2019-05-19T17:09:30.096Z,1.30
2019-05-19T17:11:56.825Z,1.70
2019-05-19T17:14:28.408Z,2.00
2019-05-19T17:16:55.549Z,1.40
2019-05-19T17:19:22.525Z,1.60
2019-05-19T17:21:49.486Z,1.67
2019-05-19T17:24:17.603Z,1.30
2019-05-19T17:26:44.360Z,1.20
2019-05-19T17:29:11.149Z,1.30
2019-05-19T17:31:40.193Z,1.27
2019-05-19T17:34:06.988Z,1.67
2019-05-19T17:36:34.277Z,1.43
2019-05-19T17:39:01.119Z,1.27
2019-05-19T17:41:27.867Z,1.03
2019-05-19T17:43:54.665Z,1.30
2019-05-19T17:46:21.426Z,1.30
2019-05-19T17:48:48.163Z,1.20
2019-05-19T17:51:15.098Z,1.10
2019-05-19T17:53:41.828Z,0.90
2019-05-19T17:56:08.674Z,0.83
2019-05-19T17:58:36.072Z,0.80
2019-05-19T18:01:02.935Z,0.80
2019-05-19T18:03:29.979Z,0.90
2019-05-19T18:05:56.792Z,0.90
2019-05-19T18:08:23.560Z,0.83
2019-05-19T18:10:50.313Z,0.70
2019-05-19T18:13:17.133Z,0.73
2019-05-19T18:15:43.884Z,1.30
2019-05-19T18:18:10.633Z,0.70
2019-05-19T18:20:37.544Z,0.90
2019-05-19T18:23:05.999Z,1.10
2019-05-19T18:25:32.994Z,1.00
2019-05-19T18:27:59.956Z,1.03
2019-05-19T18:30:26.756Z,1.60
2019-05-19T18:32:53.495Z,1.30
2019-05-19T18:35:20.288Z,1.00
2019-05-19T18:37:47.125Z,1.10
2019-05-19T18:40:14.179Z,1.70
2019-05-19T18:42:43.449Z,1.30
2019-05-19T18:45:10.710Z,0.90
2019-05-19T18:47:37.476Z,0.90
2019-05-19T18:50:07.460Z,0.80
2019-05-19T18:52:34.197Z,0.77
2019-05-19T18:55:00.934Z,1.07
2019-05-19T18:57:27.744Z,1.03
2019-05-19T18:59:54.467Z,1.17
2019-05-19T19:02:21.215Z,0.80
2019-05-19T19:04:48.059Z,0.67
2019-05-19T19:07:14.803Z,0.77
2019-05-19T19:09:42.188Z,0.80
2019-05-19T19:12:09.096Z,1.00
2019-05-19T19:14:35.843Z,0.90
2019-05-19T19:17:02.601Z,0.80
2019-05-19T19:19:29.429Z,0.87
2019-05-19T19:21:56.193Z,1.10
2019-05-19T19:24:22.956Z,0.97
2019-05-19T19:26:49.793Z,1.00
2019-05-19T19:29:16.571Z,1.00
2019-05-19T19:31:48.714Z,0.80
2019-05-19T19:34:12.087Z,0.80
2019-05-19T19:36:38.919Z,1.10
2019-05-19T19:39:05.827Z,1.47
2019-05-19T19:41:33.190Z,1.50
2019-05-19T19:44:19.966Z,1.00
2019-05-19T19:46:47.135Z,0.90
2019-05-19T19:49:14.223Z,1.00
2019-05-19T19:51:41.256Z,0.70
2019-05-19T19:54:08.316Z,0.70
2019-05-19T19:56:35.046Z,0.90
2019-05-19T19:59:01.829Z,0.80
2019-05-19T20:01:28.587Z,0.87
2019-05-19T20:03:55.336Z,0.80
2019-05-19T20:06:22.135Z,1.20
2019-05-19T20:08:49.039Z,0.90
2019-05-19T20:11:15.808Z,1.00
2019-05-19T20:13:42.542Z,0.80
2019-05-19T20:16:09.366Z,1.00
2019-05-19T20:18:36.101Z,0.93
2019-05-19T20:21:02.874Z,1.20
2019-05-19T20:23:29.739Z,1.77
2019-05-19T20:25:56.497Z,1.43
2019-05-19T20:28:23.317Z,1.50
2019-05-19T20:30:50.175Z,1.50
2019-05-19T20:33:17.016Z,1.50
2019-05-19T20:35:43.761Z,1.60
2019-05-19T20:38:10.667Z,1.17
2019-05-19T20:40:37.460Z,1.40
2019-05-19T20:43:04.203Z,1.20
2019-05-19T20:45:32.319Z,1.10
2019-05-19T20:47:59.046Z,1.07
2019-05-19T20:50:25.795Z,0.80
2019-05-19T20:52:52.615Z,0.97
2019-05-19T20:55:19.418Z,1.00
2019-05-19T20:57:46.127Z,0.90
2019-05-19T21:00:14.934Z,0.80
2019-05-19T21:02:41.681Z,0.90
2019-05-19T21:05:08.527Z,0.83
2019-05-19T21:07:35.353Z,0.80
2019-05-19T21:10:04.587Z,1.10
2019-05-19T21:12:31.352Z,0.83
2019-05-19T21:15:17.950Z,1.27
2019-05-19T21:17:44.691Z,0.90
2019-05-19T21:20:11.565Z,0.70
2019-05-19T21:22:38.438Z,1.03
2019-05-19T21:25:06.653Z,1.10
2019-05-19T21:27:33.417Z,1.30
2019-05-19T21:30:00.400Z,0.83
2019-05-19T21:32:27.153Z,0.90
2019-05-19T21:34:53.901Z,1.40
2019-05-19T21:37:20.837Z,1.53
2019-05-19T21:39:47.611Z,1.30
2019-05-19T21:42:14.407Z,0.70
2019-05-19T21:44:41.412Z,0.87
2019-05-19T21:47:08.146Z,0.90
2019-05-19T21:49:34.916Z,0.93
2019-05-19T21:52:01.808Z,1.40
2019-05-19T21:54:28.544Z,1.10
2019-05-19T21:56:55.287Z,0.90
2019-05-19T21:59:22.227Z,1.10
2019-05-19T22:01:48.912Z,0.97
2019-05-19T22:04:15.668Z,0.97
2019-05-19T22:06:42.581Z,0.90
2019-05-19T22:09:09.329Z,0.80
2019-05-19T22:11:36.091Z,0.73
2019-05-19T22:14:02.995Z,0.80
2019-05-19T22:16:29.731Z,0.97
2019-05-19T22:18:56.464Z,0.80
2019-05-19T22:21:23.397Z,0.80
2019-05-19T22:23:50.121Z,0.90
2019-05-19T22:26:16.878Z,0.80
2019-05-19T22:28:43.669Z,1.73
2019-05-19T22:31:10.423Z,0.80
2019-05-19T22:33:37.160Z,0.80
2019-05-19T22:36:04.060Z,0.70
2019-05-19T22:38:30.815Z,0.70
2019-05-19T22:40:57.599Z,0.90
2019-05-19T22:43:24.428Z,0.90
2019-05-19T22:45:51.183Z,0.90
2019-05-19T22:48:17.954Z,1.00
2019-05-19T22:50:44.770Z,0.83
2019-05-19T22:53:11.483Z,0.97
2019-05-19T22:55:38.241Z,1.07
2019-05-19T22:58:05.126Z,0.73
2019-05-19T23:00:31.919Z,0.80
2019-05-19T23:02:58.640Z,1.00
2019-05-19T23:05:25.441Z,0.80
2019-05-19T23:07:52.172Z,0.83
2019-05-19T23:10:20.926Z,0.77
2019-05-19T23:12:47.723Z,0.93
2019-05-19T23:15:15.248Z,0.97
2019-05-19T23:17:41.992Z,0.80
2019-05-19T23:20:08.889Z,0.90
2019-05-19T23:22:35.630Z,0.80
2019-05-19T23:25:04.790Z,0.70
2019-05-19T23:27:31.605Z,0.90
2019-05-19T23:29:58.378Z,0.87
2019-05-19T23:32:25.102Z,1.00
2019-05-19T23:34:51.992Z,0.87
2019-05-19T23:37:18.782Z,0.90
2019-05-19T23:39:45.528Z,1.00
2019-05-19T23:42:12.685Z,0.80
2019-05-19T23:44:39.399Z,0.80
2019-05-19T23:47:06.142Z,0.70
2019-05-19T23:49:33.032Z,0.80
2019-05-19T23:51:59.782Z,1.00
2019-05-19T23:54:26.527Z,0.93
2019-05-19T23:56:53.405Z,0.90
2019-05-19T23:59:20.152Z,0.80
